TPQ weather

Amado Nervo National Airport
Tepic, Nayarit, Mexico

Public forecast

Using degrees Celsius for public forecast. Weather courtesy of forecast.io.

METAR (pilot weather report)

Report is more than 6 hours old.

Retrieved 2017/10/21 23:40 UTC (10 hours ago):

MMEP 212340Z 36006KT 12SM SCT015TCU 25/20 A2998 RMK SLP120 55001 902 8/200

TAF (pilot weather forecast)

Forecast is more than 12 hours old.

Retrieved 2017/10/01 18:23 UTC (21 days ago):

TAF MMEP 011718Z 0118/0218 27005KT P6SM SCT020 BKN250 FM012100 34012KT P6SM BKN020CB BKN090 TEMPO 0122/0202 2SM TSRA OVC010CB FM020300 29005KT 5SM -TSRA BKN020CB OVC080 FM020600 00000KT 6SM HZ BKN020 BKN080 PROB40 0206/0210 6SM -RA FM021100 00000KT 3SM BR BKN015 BKN070 FM021500 00000KT 6SM HZ SCT020 BKN080